createdAt,value
2019-01-27T00:01:06.255Z,98838.19
2019-01-27T00:02:41.187Z,98837.70
2019-01-27T00:04:16.170Z,98837.55
2019-01-27T00:05:51.607Z,98839.15
2019-01-27T00:07:26.396Z,98837.38
2019-01-27T00:09:01.230Z,98829.16
2019-01-27T00:10:36.688Z,98824.97
2019-01-27T00:12:11.455Z,98826.45
2019-01-27T00:13:46.540Z,98822.23
2019-01-27T00:15:21.981Z,98825.89
2019-01-27T00:16:57.123Z,98822.16
2019-01-27T00:18:31.918Z,98819.55
2019-01-27T00:20:08.804Z,98811.37
2019-01-27T00:21:44.042Z,98807.52
2019-01-27T00:23:19.064Z,98809.44
2019-01-27T00:24:54.520Z,98799.89
2019-01-27T00:26:29.278Z,98809.14
2019-01-27T00:28:04.564Z,98806.21
2019-01-27T00:29:39.347Z,98795.94
2019-01-27T00:31:14.637Z,98796.66
2019-01-27T00:32:49.861Z,98794.45
2019-01-27T00:34:24.637Z,98795.78
2019-01-27T00:36:00.064Z,98800.08
2019-01-27T00:37:34.883Z,98795.91
2019-01-27T00:39:11.599Z,98797.21
2019-01-27T00:40:46.728Z,98789.64
2019-01-27T00:42:21.509Z,98792.78
2019-01-27T00:43:56.656Z,98787.42
2019-01-27T00:45:31.692Z,98787.61
2019-01-27T00:47:06.552Z,98783.48
2019-01-27T00:48:41.315Z,98787.87
2019-01-27T00:50:17.685Z,98786.94
2019-01-27T00:51:52.762Z,98784.30
2019-01-27T00:53:27.608Z,98775.88
2019-01-27T00:55:02.400Z,98776.67
2019-01-27T00:56:37.202Z,98783.12
2019-01-27T00:58:11.998Z,98779.97
2019-01-27T00:59:47.061Z,98770.97
2019-01-27T01:01:21.892Z,98768.97
2019-01-27T01:02:56.848Z,98766.77
2019-01-27T01:04:31.608Z,98761.59
2019-01-27T01:06:06.820Z,98754.05
2019-01-27T01:07:42.217Z,98758.08
2019-01-27T01:09:17.072Z,98750.71
2019-01-27T01:10:52.008Z,98751.34
2019-01-27T01:12:27.102Z,98744.97
2019-01-27T01:14:01.887Z,98744.30
2019-01-27T01:15:37.160Z,98742.16
2019-01-27T01:17:11.948Z,98740.09
2019-01-27T01:18:47.034Z,98736.58
2019-01-27T01:20:22.448Z,98731.73
2019-01-27T01:21:57.576Z,98730.77
2019-01-27T01:23:32.811Z,98728.20
2019-01-27T01:25:12.050Z,98727.63
2019-01-27T01:26:47.167Z,98725.90
2019-01-27T01:28:22.296Z,98728.09
2019-01-27T01:29:57.239Z,98727.52
2019-01-27T01:31:32.077Z,98724.89
2019-01-27T01:33:07.027Z,98724.27
2019-01-27T01:34:41.803Z,98716.62
2019-01-27T01:36:16.578Z,98718.17
2019-01-27T01:37:51.609Z,98710.48
2019-01-27T01:39:26.720Z,98718.47
2019-01-27T01:41:01.485Z,98715.82
2019-01-27T01:42:36.257Z,98700.89
2019-01-27T01:44:11.349Z,98707.43
2019-01-27T01:45:46.486Z,98702.78
2019-01-27T01:47:21.242Z,98704.44
2019-01-27T01:48:56.156Z,98695.22
2019-01-27T01:50:31.049Z,98690.23
2019-01-27T01:52:06.594Z,98689.51
2019-01-27T01:53:42.239Z,98691.54
2019-01-27T01:55:17.197Z,98684.91
2019-01-27T01:56:51.966Z,98676.16
2019-01-27T01:58:27.113Z,98678.17
2019-01-27T02:00:01.905Z,98665.10
2019-01-27T02:01:36.777Z,98662.17
2019-01-27T02:03:11.893Z,98658.41
2019-01-27T02:04:46.665Z,98652.16
2019-01-27T02:06:21.432Z,98654.17
2019-01-27T02:07:56.673Z,98651.91
2019-01-27T02:09:31.546Z,98652.99
2019-01-27T02:11:06.543Z,98642.13
2019-01-27T02:12:41.747Z,98642.70
2019-01-27T02:14:16.983Z,98633.97
2019-01-27T02:16:03.024Z,98631.99
2019-01-27T02:17:38.104Z,98633.59
2019-01-27T02:19:13.229Z,98623.77
2019-01-27T02:20:48.319Z,98626.70
2019-01-27T02:22:23.440Z,98611.84
2019-01-27T02:23:58.252Z,98617.14
2019-01-27T02:25:33.069Z,98613.50
2019-01-27T02:27:07.925Z,98605.81
2019-01-27T02:28:42.686Z,98606.61
2019-01-27T02:30:18.395Z,98606.77
2019-01-27T02:31:53.257Z,98602.41
2019-01-27T02:33:28.418Z,98595.46
2019-01-27T02:35:03.515Z,98586.31
2019-01-27T02:36:38.518Z,98584.17
2019-01-27T02:38:13.603Z,98584.98
2019-01-27T02:39:48.695Z,98581.26
2019-01-27T02:41:23.454Z,98579.57
2019-01-27T02:42:58.303Z,98573.89
2019-01-27T02:44:33.101Z,98566.59
2019-01-27T02:46:08.222Z,98562.27
2019-01-27T02:47:43.068Z,98559.59
2019-01-27T02:49:17.875Z,98553.45
2019-01-27T02:50:52.651Z,98550.66
2019-01-27T02:52:27.803Z,98544.08
2019-01-27T02:54:02.723Z,98541.28
2019-01-27T02:55:38.053Z,98536.90
2019-01-27T02:57:12.850Z,98524.03
2019-01-27T02:58:47.877Z,98533.13
2019-01-27T03:00:23.154Z,98525.52
2019-01-27T03:01:57.928Z,98515.39
2019-01-27T03:03:33.252Z,98511.66
2019-01-27T03:05:20.763Z,98513.95
2019-01-27T03:07:07.016Z,98505.97
2019-01-27T03:08:49.176Z,98512.95
2019-01-27T03:10:23.955Z,98507.87
2019-01-27T03:11:58.712Z,98499.94
2019-01-27T03:13:33.878Z,98499.16
2019-01-27T03:15:10.418Z,98502.54
2019-01-27T03:16:45.660Z,98497.81
2019-01-27T03:18:20.807Z,98500.48
2019-01-27T03:19:55.920Z,98493.72
2019-01-27T03:21:30.801Z,98487.05
2019-01-27T03:23:06.705Z,98480.98
2019-01-27T03:24:42.806Z,98473.05
2019-01-27T03:26:18.503Z,98470.57
2019-01-27T03:27:53.947Z,98469.21
2019-01-27T03:29:28.746Z,98464.58
2019-01-27T03:31:03.702Z,98456.33
2019-01-27T03:32:38.950Z,98454.09
2019-01-27T03:34:14.254Z,98451.31
2019-01-27T03:35:49.387Z,98450.03
2019-01-27T03:37:24.157Z,98446.37
2019-01-27T03:38:59.037Z,98446.69
2019-01-27T03:40:34.570Z,98446.42
2019-01-27T03:42:09.596Z,98445.13
2019-01-27T03:43:44.935Z,98439.46
2019-01-27T03:45:19.950Z,98438.39
2019-01-27T03:46:55.117Z,98434.45
2019-01-27T03:48:30.329Z,98431.35
2019-01-27T03:50:07.513Z,98426.34
2019-01-27T03:51:42.949Z,98415.95
2019-01-27T03:53:18.073Z,98419.21
2019-01-27T03:54:53.213Z,98411.77
2019-01-27T03:56:28.159Z,98411.19
2019-01-27T03:58:03.011Z,98403.60
2019-01-27T03:59:37.889Z,98404.97
2019-01-27T04:01:13.011Z,98405.20
2019-01-27T04:02:47.872Z,98399.95
2019-01-27T04:04:22.755Z,98404.77
2019-01-27T04:05:57.529Z,98402.22
2019-01-27T04:07:32.638Z,98397.64
2019-01-27T04:09:11.892Z,98380.89
2019-01-27T04:10:47.169Z,98379.95
2019-01-27T04:12:22.328Z,98381.01
2019-01-27T04:13:57.173Z,98366.98
2019-01-27T04:15:32.057Z,98368.48
2019-01-27T04:17:07.181Z,98367.20
2019-01-27T04:18:42.013Z,98364.31
2019-01-27T04:20:19.478Z,98363.72
2019-01-27T04:21:54.618Z,98360.52
2019-01-27T04:23:29.730Z,98362.53
2019-01-27T04:25:04.984Z,98365.68
2019-01-27T04:26:40.126Z,98360.86
2019-01-27T04:28:15.317Z,98357.56
2019-01-27T04:29:50.213Z,98361.52
2019-01-27T04:31:24.971Z,98358.56
2019-01-27T04:33:00.408Z,98352.00
2019-01-27T04:34:35.564Z,98351.82
2019-01-27T04:36:10.385Z,98340.86
2019-01-27T04:37:45.163Z,98348.38
2019-01-27T04:39:19.972Z,98344.02
2019-01-27T04:40:55.469Z,98344.47
2019-01-27T04:42:30.243Z,98338.84
2019-01-27T04:44:05.478Z,98340.36
2019-01-27T04:45:40.635Z,98335.31
2019-01-27T04:47:15.429Z,98331.48
2019-01-27T04:48:50.220Z,98324.98
2019-01-27T04:50:25.087Z,98318.95
2019-01-27T04:52:00.239Z,98311.55
2019-01-27T04:53:35.041Z,98311.35
2019-01-27T04:55:12.236Z,98309.79
2019-01-27T04:56:47.667Z,98307.93
2019-01-27T04:58:22.623Z,98309.59
2019-01-27T04:59:57.386Z,98303.27
2019-01-27T05:01:32.553Z,98304.42
2019-01-27T05:03:29.371Z,98305.83
2019-01-27T05:05:05.068Z,98300.85
2019-01-27T05:06:39.838Z,98298.89
2019-01-27T05:08:14.607Z,98301.55
2019-01-27T05:09:49.907Z,98296.70
2019-01-27T05:11:24.760Z,98299.63
2019-01-27T05:12:59.865Z,98293.89
2019-01-27T05:14:34.723Z,98293.39
2019-01-27T05:16:09.814Z,98287.38
2019-01-27T05:17:44.944Z,98284.34
2019-01-27T05:19:19.727Z,98284.73
2019-01-27T05:20:54.842Z,98274.28
2019-01-27T05:22:29.663Z,98274.44
2019-01-27T05:24:05.000Z,98260.67
2019-01-27T05:25:40.132Z,98263.28
2019-01-27T05:27:14.937Z,98255.38
2019-01-27T05:28:49.798Z,98255.05
2019-01-27T05:30:25.103Z,98258.69
2019-01-27T05:31:59.865Z,98254.53
2019-01-27T05:33:34.946Z,98251.66
2019-01-27T05:35:09.937Z,98256.58
2019-01-27T05:36:44.979Z,98249.45
2019-01-27T05:38:19.767Z,98246.30
2019-01-27T05:39:54.907Z,98249.93
2019-01-27T05:41:29.679Z,98241.02
2019-01-27T05:43:04.909Z,98238.59
2019-01-27T05:44:40.013Z,98237.36
2019-01-27T05:46:14.787Z,98234.66
2019-01-27T05:47:49.670Z,98236.55
2019-01-27T05:49:24.444Z,98230.03
2019-01-27T05:50:59.607Z,98229.23
2019-01-27T05:52:34.406Z,98222.33
2019-01-27T05:54:09.312Z,98219.16
2019-01-27T05:55:44.099Z,98220.53
2019-01-27T05:57:19.205Z,98219.83
2019-01-27T05:58:54.007Z,98214.47
2019-01-27T06:00:36.746Z,98212.55
2019-01-27T06:02:11.866Z,98216.06
2019-01-27T06:03:46.926Z,98220.83
2019-01-27T06:05:21.811Z,98222.84
2019-01-27T06:06:56.698Z,98218.09
2019-01-27T06:08:32.090Z,98220.42
2019-01-27T06:10:09.135Z,98220.92
2019-01-27T06:11:44.200Z,98224.01
2019-01-27T06:13:19.004Z,98221.03
2019-01-27T06:14:53.787Z,98208.44
2019-01-27T06:16:28.629Z,98213.48
2019-01-27T06:18:03.470Z,98211.50
2019-01-27T06:19:38.268Z,98204.88
2019-01-27T06:21:13.664Z,98190.91
2019-01-27T06:22:48.495Z,98192.02
2019-01-27T06:24:23.558Z,98189.63
2019-01-27T06:25:58.464Z,98191.44
2019-01-27T06:27:33.266Z,98195.91
2019-01-27T06:29:08.472Z,98192.33
2019-01-27T06:30:43.339Z,98190.25
2019-01-27T06:32:49.177Z,98192.81
2019-01-27T06:34:24.279Z,98200.02
2019-01-27T06:35:59.611Z,98190.53
2019-01-27T06:37:34.481Z,98184.89
2019-01-27T06:39:10.498Z,98190.60
2019-01-27T06:40:45.438Z,98187.52
2019-01-27T06:42:20.215Z,98186.59
2019-01-27T06:43:55.004Z,98183.42
2019-01-27T06:45:29.910Z,98183.36
2019-01-27T06:47:05.015Z,98178.18
2019-01-27T06:48:39.790Z,98180.27
2019-01-27T06:50:15.046Z,98177.85
2019-01-27T06:51:49.897Z,98176.19
2019-01-27T06:53:24.713Z,98177.47
2019-01-27T06:54:59.475Z,98174.25
2019-01-27T06:56:34.911Z,98174.28
2019-01-27T06:58:10.061Z,98175.08
2019-01-27T07:00:13.454Z,98166.07
2019-01-27T07:01:52.589Z,98174.42
2019-01-27T07:03:49.767Z,98171.40
2019-01-27T07:05:45.158Z,98167.25
2019-01-27T07:07:45.397Z,98168.38
2019-01-27T07:09:26.981Z,98159.89
2019-01-27T07:11:27.214Z,98156.22
2019-01-27T07:13:23.527Z,98153.08
2019-01-27T07:15:21.128Z,98153.78
2019-01-27T07:17:30.611Z,98154.91
2019-01-27T07:19:23.537Z,98153.08
2019-01-27T07:21:14.069Z,98151.19
2019-01-27T07:23:17.554Z,98142.78
2019-01-27T07:25:26.985Z,98143.50
2019-01-27T07:27:19.450Z,98138.82
2019-01-27T07:29:09.907Z,98135.68
2019-01-27T07:31:03.266Z,98125.94
2019-01-27T07:32:53.445Z,98129.28
2019-01-27T07:34:41.644Z,98127.66
2019-01-27T07:36:36.066Z,98121.00
2019-01-27T07:38:17.046Z,98104.63
2019-01-27T07:40:10.924Z,98104.16
2019-01-27T07:41:50.940Z,98104.64
2019-01-27T07:43:31.624Z,98101.08
2019-01-27T07:45:29.992Z,98099.81
2019-01-27T07:47:23.308Z,98098.03
2019-01-27T07:49:20.948Z,98096.78
2019-01-27T07:51:27.552Z,98092.02
2019-01-27T07:53:30.850Z,98094.59
2019-01-27T07:55:39.928Z,98091.98
2019-01-27T07:57:48.583Z,98089.41
2019-01-27T07:59:55.374Z,98094.22
2019-01-27T08:01:55.525Z,98092.34
2019-01-27T08:03:53.233Z,98095.73
2019-01-27T08:05:57.855Z,98096.95
2019-01-27T08:07:50.173Z,98081.47
2019-01-27T08:10:09.670Z,98086.03
2019-01-27T08:12:14.395Z,98089.08
2019-01-27T08:14:11.427Z,98086.26
2019-01-27T08:16:24.447Z,98071.85
2019-01-27T08:18:40.639Z,98073.95
2019-01-27T08:20:47.208Z,98073.63
2019-01-27T08:23:03.533Z,98076.95
2019-01-27T08:25:20.739Z,98063.97
2019-01-27T08:27:29.948Z,98061.95
2019-01-27T08:29:22.777Z,98064.30
2019-01-27T08:31:27.050Z,98068.20
2019-01-27T08:33:50.424Z,98063.42
2019-01-27T08:35:56.895Z,98063.54
2019-01-27T08:38:16.152Z,98059.99
2019-01-27T08:40:32.053Z,98062.20
2019-01-27T08:42:41.417Z,98065.19
2019-01-27T08:44:57.200Z,98056.36
2019-01-27T08:46:55.039Z,98061.47
2019-01-27T08:48:50.061Z,98067.90
2019-01-27T08:50:43.999Z,98052.08
2019-01-27T08:52:37.946Z,98061.09
2019-01-27T08:54:30.110Z,98059.26
2019-01-27T08:56:20.008Z,98059.58
2019-01-27T08:58:12.308Z,98059.44
2019-01-27T09:00:11.322Z,98050.25
2019-01-27T09:02:21.894Z,98055.89
2019-01-27T09:04:24.198Z,98051.56
2019-01-27T09:06:32.403Z,98054.91
2019-01-27T09:08:42.536Z,98060.66
2019-01-27T09:10:48.551Z,98068.48
2019-01-27T09:12:51.146Z,98066.72
2019-01-27T09:14:59.354Z,98071.08
2019-01-27T09:17:09.400Z,98060.53
2019-01-27T09:19:15.664Z,98057.77
2019-01-27T09:21:42.404Z,98057.94
2019-01-27T09:23:48.764Z,98060.09
2019-01-27T09:26:04.873Z,98054.82
2019-01-27T09:28:22.174Z,98057.84
2019-01-27T09:30:32.659Z,98059.84
2019-01-27T09:32:31.612Z,98065.94
2019-01-27T09:34:43.125Z,98060.72
2019-01-27T09:36:52.760Z,98052.22
2019-01-27T09:39:07.811Z,98044.83
2019-01-27T09:41:26.339Z,98038.11
2019-01-27T09:43:39.378Z,98030.61
2019-01-27T09:46:05.134Z,98034.47
2019-01-27T09:48:20.776Z,98022.87
2019-01-27T09:50:16.424Z,98037.09
2019-01-27T09:52:28.999Z,98026.16
2019-01-27T09:54:29.652Z,98009.77
2019-01-27T09:56:48.840Z,98016.78
2019-01-27T09:59:08.567Z,98019.28
2019-01-27T10:01:12.520Z,98014.75
2019-01-27T10:03:43.204Z,98015.86
2019-01-27T10:05:43.184Z,98011.99
2019-01-27T10:08:10.984Z,98008.71
2019-01-27T10:10:22.597Z,97995.39
2019-01-27T10:12:22.798Z,98001.48
2019-01-27T10:14:37.289Z,97998.70
2019-01-27T10:16:49.436Z,98010.42
2019-01-27T10:18:58.779Z,98003.20
2019-01-27T10:21:10.918Z,98006.23
2019-01-27T10:23:29.046Z,98000.19
2019-01-27T10:25:53.191Z,97992.92
2019-01-27T10:28:01.382Z,97982.73
2019-01-27T10:30:17.888Z,97971.34
2019-01-27T10:32:40.432Z,97983.66
2019-01-27T10:34:50.278Z,97983.19
2019-01-27T10:36:51.291Z,97974.88
2019-01-27T10:39:08.229Z,97972.69
2019-01-27T10:41:27.102Z,97973.93
2019-01-27T10:43:40.801Z,97967.02
2019-01-27T10:46:03.784Z,97956.94
2019-01-27T10:48:22.584Z,97958.70
2019-01-27T10:50:33.852Z,97949.98
2019-01-27T10:52:55.744Z,97955.09
2019-01-27T10:54:56.319Z,97959.53
2019-01-27T10:57:04.147Z,97953.76
2019-01-27T10:59:21.284Z,97942.95
2019-01-27T11:01:35.356Z,97946.91
2019-01-27T11:03:51.634Z,97939.99
2019-01-27T11:05:58.361Z,97937.56
2019-01-27T11:08:06.064Z,97923.89
2019-01-27T11:10:15.227Z,97926.63
2019-01-27T11:12:29.749Z,97929.63
2019-01-27T11:14:35.394Z,97924.82
2019-01-27T11:18:57.756Z,97917.33
2019-01-27T11:20:58.703Z,97917.02
2019-01-27T11:23:06.383Z,97913.33
2019-01-27T11:25:23.089Z,97910.91
2019-01-27T11:27:24.435Z,97906.84
2019-01-27T11:29:40.627Z,97893.66
2019-01-27T11:31:48.224Z,97900.87
2019-01-27T11:34:03.172Z,97899.05
2019-01-27T11:36:15.678Z,97898.37
2019-01-27T11:38:45.015Z,97903.41
2019-01-27T11:40:51.010Z,97896.92
2019-01-27T11:42:55.219Z,97903.06
2019-01-27T11:45:10.018Z,97896.77
2019-01-27T11:47:22.121Z,97889.90
2019-01-27T11:49:31.552Z,97885.66
2019-01-27T11:51:27.042Z,97884.57
2019-01-27T11:53:21.642Z,97882.84
2019-01-27T11:55:43.005Z,97876.98
2019-01-27T11:57:45.634Z,97881.90
2019-01-27T11:59:36.448Z,97876.13
2019-01-27T12:01:39.623Z,97883.86
2019-01-27T12:03:32.181Z,97887.45
2019-01-27T12:05:24.825Z,97895.48
2019-01-27T12:07:21.669Z,97895.63
2019-01-27T12:09:18.008Z,97887.36
2019-01-27T12:11:07.485Z,97882.28
2019-01-27T12:13:00.200Z,97877.38
2019-01-27T12:14:55.897Z,97877.47
2019-01-27T12:16:47.558Z,97876.27
2019-01-27T12:18:43.149Z,97874.81
2019-01-27T12:20:35.402Z,97870.02
2019-01-27T12:22:23.672Z,97867.86
2019-01-27T12:24:15.365Z,97860.97
2019-01-27T12:26:11.875Z,97860.19
2019-01-27T12:28:00.558Z,97869.95
2019-01-27T12:30:05.473Z,97866.70
2019-01-27T12:31:55.948Z,97858.33
2019-01-27T12:33:48.236Z,97864.05
2019-01-27T12:35:41.577Z,97859.80
2019-01-27T12:37:32.637Z,97859.59
2019-01-27T12:39:30.254Z,97858.36
2019-01-27T12:41:27.616Z,97859.91
2019-01-27T12:43:19.339Z,97851.17
2019-01-27T12:45:14.660Z,97857.94
2019-01-27T12:47:09.612Z,97848.83
2019-01-27T12:49:19.774Z,97851.64
2019-01-27T12:51:20.864Z,97833.23
2019-01-27T12:53:18.532Z,97843.37
2019-01-27T12:55:13.985Z,97842.50
2019-01-27T12:57:07.441Z,97838.79
2019-01-27T12:59:02.226Z,97844.63
2019-01-27T13:01:12.869Z,97836.33
2019-01-27T13:03:04.509Z,97827.01
2019-01-27T13:04:56.808Z,97826.92
2019-01-27T13:06:49.119Z,97827.92
2019-01-27T13:08:39.975Z,97819.38
2019-01-27T13:10:31.586Z,97817.12
2019-01-27T13:12:26.865Z,97813.09
2019-01-27T13:14:19.154Z,97802.87
2019-01-27T13:16:14.245Z,97802.81
2019-01-27T13:18:05.325Z,97800.83
2019-01-27T13:19:57.084Z,97798.20
2019-01-27T13:21:53.894Z,97799.15
2019-01-27T13:23:46.019Z,97791.84
2019-01-27T13:25:39.614Z,97791.48
2019-01-27T13:27:34.272Z,97793.03
2019-01-27T13:29:22.709Z,97804.09
2019-01-27T13:31:14.305Z,97800.24
2019-01-27T13:33:07.213Z,97800.13
2019-01-27T13:35:00.631Z,97792.98
2019-01-27T13:36:53.937Z,97789.47
2019-01-27T13:38:50.830Z,97781.27
2019-01-27T13:40:44.597Z,97784.04
2019-01-27T13:42:41.069Z,97785.02
2019-01-27T13:44:34.189Z,97781.89
2019-01-27T13:46:26.516Z,97783.37
2019-01-27T13:48:27.657Z,97772.55
2019-01-27T13:50:18.232Z,97777.30
2019-01-27T13:52:07.202Z,97772.08
2019-01-27T13:53:55.839Z,97756.28
2019-01-27T13:56:01.805Z,97765.55
2019-01-27T13:57:50.792Z,97772.55
2019-01-27T13:59:43.313Z,97758.95
2019-01-27T14:01:39.051Z,97758.00
2019-01-27T14:03:37.414Z,97767.23
2019-01-27T14:05:30.601Z,97757.52
2019-01-27T14:07:25.790Z,97752.16
2019-01-27T14:09:16.175Z,97748.90
2019-01-27T14:11:10.350Z,97735.42
2019-01-27T14:13:03.500Z,97735.50
2019-01-27T14:15:00.525Z,97737.83
2019-01-27T14:16:57.102Z,97739.01
2019-01-27T14:18:46.594Z,97737.66
2019-01-27T14:20:43.893Z,97737.61
2019-01-27T14:22:37.537Z,97736.86
2019-01-27T14:24:29.391Z,97733.91
2019-01-27T14:26:18.324Z,97735.45
2019-01-27T14:28:10.812Z,97727.70
2019-01-27T14:30:02.992Z,97731.70
2019-01-27T14:31:57.290Z,97739.52
2019-01-27T14:33:47.452Z,97732.92
2019-01-27T14:35:40.300Z,97730.02
2019-01-27T14:37:29.992Z,97724.38
2019-01-27T14:39:22.485Z,97715.13
2019-01-27T14:41:14.664Z,97721.63
2019-01-27T14:48:59.846Z,97721.11
2019-01-27T14:51:41.600Z,97720.56
2019-01-27T14:56:41.191Z,97702.72
2019-01-27T14:58:37.887Z,97703.77
2019-01-27T15:00:42.295Z,97704.84
2019-01-27T15:02:37.925Z,97706.78
2019-01-27T15:04:30.214Z,97710.61
2019-01-27T15:06:22.325Z,97714.73
2019-01-27T15:08:10.889Z,97710.77
2019-01-27T15:10:08.655Z,97703.84
2019-01-27T15:11:58.534Z,97695.14
2019-01-27T15:14:08.497Z,97700.78
2019-01-27T15:15:57.639Z,97705.39
2019-01-27T15:17:59.397Z,97705.44
2019-01-27T15:19:53.916Z,97700.79
2019-01-27T15:21:43.139Z,97697.03
2019-01-27T15:23:44.471Z,97711.72
2019-01-27T15:25:38.940Z,97712.02
2019-01-27T15:27:32.271Z,97706.04
2019-01-27T15:29:20.736Z,97709.77
2019-01-27T15:31:14.463Z,97708.02
2019-01-27T15:33:07.891Z,97705.78
2019-01-27T15:35:03.598Z,97710.84
2019-01-27T15:37:00.509Z,97710.72
2019-01-27T15:38:53.636Z,97703.87
2019-01-27T15:40:44.792Z,97699.95
2019-01-27T15:42:39.879Z,97697.75
2019-01-27T15:44:37.786Z,97690.31
2019-01-27T15:46:26.227Z,97697.48
2019-01-27T15:48:15.091Z,97697.80
2019-01-27T15:50:03.927Z,97697.84
2019-01-27T15:51:55.810Z,97695.60
2019-01-27T15:53:45.155Z,97691.23
2019-01-27T15:55:33.724Z,97691.91
2019-01-27T15:57:24.112Z,97689.08
2019-01-27T15:59:14.730Z,97695.86
2019-01-27T16:01:05.031Z,97693.11
2019-01-27T16:02:59.486Z,97694.92
2019-01-27T16:04:49.756Z,97699.52
2019-01-27T16:06:46.052Z,97690.47
2019-01-27T16:08:46.932Z,97694.22
2019-01-27T16:10:40.380Z,97695.34
2019-01-27T16:12:30.432Z,97692.80
2019-01-27T16:14:28.442Z,97689.52
2019-01-27T16:16:17.290Z,97687.36
2019-01-27T16:18:11.193Z,97692.19
2019-01-27T16:20:00.558Z,97693.50
2019-01-27T16:21:51.209Z,97698.20
2019-01-27T16:23:58.346Z,97705.72
2019-01-27T16:25:48.929Z,97708.81
2019-01-27T16:27:39.332Z,97717.05
2019-01-27T16:29:57.091Z,97714.80
2019-01-27T16:31:55.956Z,97708.22
2019-01-27T16:33:58.757Z,97709.29
2019-01-27T16:35:53.693Z,97713.06
2019-01-27T16:37:50.393Z,97713.45
2019-01-27T16:39:41.004Z,97705.45
2019-01-27T16:41:32.082Z,97710.97
2019-01-27T16:43:22.904Z,97708.28
2019-01-27T16:45:19.704Z,97710.95
2019-01-27T16:47:13.511Z,97708.39
2019-01-27T16:49:02.246Z,97710.75
2019-01-27T16:50:55.971Z,97711.77
2019-01-27T16:52:46.009Z,97707.14
2019-01-27T16:54:44.147Z,97711.52
2019-01-27T16:56:35.416Z,97709.14
2019-01-27T16:58:25.079Z,97709.91
2019-01-27T17:00:20.277Z,97720.71
2019-01-27T17:02:13.243Z,97721.34
2019-01-27T17:04:04.861Z,97715.75
2019-01-27T17:05:57.050Z,97718.59
2019-01-27T17:07:47.580Z,97714.09
2019-01-27T17:09:39.185Z,97729.20
2019-01-27T17:11:32.736Z,97730.11
2019-01-27T17:13:24.600Z,97721.23
2019-01-27T17:15:14.939Z,97729.33
2019-01-27T17:17:03.523Z,97727.72
2019-01-27T17:18:55.507Z,97732.28
2019-01-27T17:20:50.502Z,97726.37
2019-01-27T17:22:39.365Z,97729.74
2019-01-27T17:24:28.243Z,97729.83
2019-01-27T17:26:18.019Z,97737.48
2019-01-27T17:28:10.005Z,97731.81
2019-01-27T17:30:01.858Z,97730.78
2019-01-27T17:31:53.787Z,97724.73
2019-01-27T17:33:47.588Z,97723.39
2019-01-27T17:35:37.563Z,97722.37
2019-01-27T17:37:27.541Z,97714.09
2019-01-27T17:39:18.812Z,97718.34
2019-01-27T17:41:14.860Z,97706.76
2019-01-27T17:43:05.492Z,97701.28
2019-01-27T17:44:59.982Z,97698.16
2019-01-27T17:46:50.811Z,97696.79
2019-01-27T17:48:50.075Z,97694.23
2019-01-27T17:50:45.090Z,97695.00
2019-01-27T17:52:59.994Z,97699.35
2019-01-27T17:54:49.153Z,97692.63
2019-01-27T17:56:42.209Z,97702.92
2019-01-27T17:59:03.355Z,97690.63
2019-01-27T18:01:10.666Z,97695.48
2019-01-27T18:03:10.878Z,97698.30
2019-01-27T18:05:15.239Z,97697.11
2019-01-27T18:07:14.325Z,97696.25
2019-01-27T18:09:22.310Z,97707.06
2019-01-27T18:11:38.548Z,97705.30
2019-01-27T18:13:35.510Z,97706.94
2019-01-27T18:15:43.592Z,97709.48
2019-01-27T18:17:41.368Z,97712.48
2019-01-27T18:19:40.362Z,97704.64
2019-01-27T18:21:39.038Z,97700.43
2019-01-27T18:23:35.177Z,97695.48
2019-01-27T18:25:26.924Z,97693.91
2019-01-27T18:27:19.721Z,97703.88
2019-01-27T18:29:09.817Z,97702.70
2019-01-27T18:31:11.906Z,97702.70
2019-01-27T18:33:08.298Z,97698.78
2019-01-27T18:34:59.718Z,97698.00
2019-01-27T18:36:54.092Z,97698.83
2019-01-27T18:38:43.707Z,97709.50
2019-01-27T18:40:33.788Z,97705.72
2019-01-27T18:42:42.894Z,97706.37
2019-01-27T18:44:35.240Z,97702.47
2019-01-27T18:46:27.987Z,97711.57
2019-01-27T18:51:42.244Z,97706.34
2019-01-27T18:54:08.751Z,97706.56
2019-01-27T18:56:16.570Z,97715.45
2019-01-27T18:58:43.470Z,97716.19
2019-01-27T19:01:05.332Z,97708.31
2019-01-27T19:03:22.024Z,97715.95
2019-01-27T19:05:38.112Z,97711.67
2019-01-27T19:07:48.786Z,97712.68
2019-01-27T19:09:50.918Z,97709.47
2019-01-27T19:12:04.440Z,97710.14
2019-01-27T19:14:21.836Z,97709.34
2019-01-27T19:16:26.206Z,97711.02
2019-01-27T19:18:51.411Z,97711.97
2019-01-27T19:20:50.143Z,97703.42
2019-01-27T19:23:11.254Z,97708.53
2019-01-27T19:25:26.147Z,97713.92
2019-01-27T19:27:41.746Z,97712.55
2019-01-27T19:29:46.739Z,97715.97
2019-01-27T19:31:39.496Z,97721.62
2019-01-27T19:33:49.772Z,97718.80
2019-01-27T19:35:58.701Z,97716.09
2019-01-27T19:38:03.084Z,97712.90
2019-01-27T19:40:33.336Z,97721.13
2019-01-27T19:42:55.164Z,97715.84
2019-01-27T19:45:11.436Z,97715.63
2019-01-27T19:47:16.034Z,97712.80
2019-01-27T19:49:39.951Z,97719.16
2019-01-27T19:51:48.976Z,97729.98
2019-01-27T19:54:08.363Z,97723.58
2019-01-27T19:56:10.982Z,97729.76
2019-01-27T19:58:25.304Z,97731.70
2019-01-27T20:00:33.341Z,97731.96
2019-01-27T20:02:49.977Z,97727.78
2019-01-27T20:05:03.401Z,97730.78
2019-01-27T20:07:08.742Z,97733.38
2019-01-27T20:09:24.933Z,97737.04
2019-01-27T20:11:36.109Z,97741.41
2019-01-27T20:13:58.935Z,97731.22
2019-01-27T20:16:10.336Z,97740.80
2019-01-27T20:18:18.572Z,97745.03
2019-01-27T20:20:29.105Z,97741.67
2019-01-27T20:22:37.014Z,97741.84
2019-01-27T20:24:44.391Z,97743.91
2019-01-27T20:27:02.573Z,97747.52
2019-01-27T20:29:28.805Z,97741.72
2019-01-27T20:31:36.983Z,97758.88
2019-01-27T20:33:58.644Z,97758.72
2019-01-27T20:36:08.428Z,97749.12
2019-01-27T20:38:36.461Z,97753.88
2019-01-27T20:40:45.210Z,97753.78
2019-01-27T20:42:58.231Z,97757.15
2019-01-27T20:45:14.865Z,97748.59
2019-01-27T20:47:29.769Z,97745.23
2019-01-27T20:49:35.633Z,97746.64
2019-01-27T20:51:53.971Z,97747.91
2019-01-27T20:54:08.031Z,97736.10
2019-01-27T20:56:22.021Z,97734.56
2019-01-27T20:58:29.402Z,97733.36
2019-01-27T21:00:42.121Z,97726.66
2019-01-27T21:02:49.951Z,97733.48
2019-01-27T21:04:56.373Z,97730.89
2019-01-27T21:06:59.483Z,97733.92
2019-01-27T21:09:13.220Z,97725.81
2019-01-27T21:11:31.496Z,97734.89
2019-01-27T21:13:31.046Z,97727.06
2019-01-27T21:16:04.444Z,97733.30
2019-01-27T21:18:18.162Z,97732.33
2019-01-27T21:20:14.816Z,97737.44
2019-01-27T21:22:06.631Z,97736.08
2019-01-27T21:23:56.578Z,97736.42
2019-01-27T21:25:47.761Z,97737.63
2019-01-27T21:27:41.143Z,97731.08
2019-01-27T21:29:32.756Z,97741.10
2019-01-27T21:31:28.622Z,97742.23
2019-01-27T21:33:20.314Z,97748.88
2019-01-27T21:35:14.057Z,97741.55
2019-01-27T21:37:05.172Z,97743.33
2019-01-27T21:38:55.976Z,97740.55
2019-01-27T21:40:48.853Z,97738.08
2019-01-27T21:42:38.569Z,97740.05
2019-01-27T21:44:27.226Z,97741.64
2019-01-27T21:46:18.113Z,97745.30
2019-01-27T21:48:07.054Z,97741.48
2019-01-27T21:49:57.557Z,97734.72
2019-01-27T21:51:51.924Z,97732.88
2019-01-27T21:53:40.336Z,97734.63
2019-01-27T21:55:29.513Z,97729.63
2019-01-27T21:57:19.509Z,97726.31
2019-01-27T21:59:08.774Z,97728.53
2019-01-27T22:00:59.401Z,97722.17
2019-01-27T22:02:48.022Z,97724.79
2019-01-27T22:04:36.620Z,97725.77